createdAt,value
2018-07-20T00:01:42.086Z,3.40
2018-07-20T00:04:10.789Z,3.50
2018-07-20T00:06:39.506Z,3.60
2018-07-20T00:09:09.254Z,3.60
2018-07-20T00:11:37.958Z,3.30
2018-07-20T00:14:06.619Z,3.30
2018-07-20T00:16:35.297Z,3.60
2018-07-20T00:19:04.014Z,3.35
2018-07-20T00:21:32.752Z,3.80
2018-07-20T00:24:01.554Z,3.72
2018-07-20T00:26:30.320Z,3.80
2018-07-20T00:28:58.983Z,3.85
2018-07-20T00:31:27.651Z,4.20
2018-07-20T00:33:56.337Z,3.80
2018-07-20T00:36:25.068Z,3.95
2018-07-20T00:38:53.832Z,4.03
2018-07-20T00:41:22.478Z,4.00
2018-07-20T00:43:51.258Z,4.50
2018-07-20T00:46:19.920Z,3.73
2018-07-20T00:48:48.642Z,3.80
2018-07-20T00:51:17.324Z,3.63
2018-07-20T00:53:46.020Z,3.93
2018-07-20T00:56:14.717Z,4.40
2018-07-20T00:58:43.733Z,4.20
2018-07-20T01:01:12.433Z,4.13
2018-07-20T01:03:40.746Z,4.03
2018-07-20T01:06:09.370Z,4.00
2018-07-20T01:08:38.085Z,4.37
2018-07-20T01:11:06.799Z,4.07
2018-07-20T01:13:41.717Z,3.97
2018-07-20T01:16:10.385Z,3.63
2018-07-20T01:18:39.059Z,3.67
2018-07-20T01:21:08.137Z,3.40
2018-07-20T01:23:36.451Z,3.60
2018-07-20T01:26:05.111Z,3.80
2018-07-20T01:28:33.776Z,3.70
2018-07-20T01:31:02.443Z,3.57
2018-07-20T01:33:31.111Z,3.40
2018-07-20T01:35:59.757Z,3.27
2018-07-20T01:38:28.422Z,4.03
2018-07-20T01:40:57.147Z,3.43
2018-07-20T01:43:25.854Z,3.20
2018-07-20T01:46:01.188Z,3.60
2018-07-20T01:48:29.854Z,3.17
2018-07-20T01:50:58.577Z,3.10
2018-07-20T01:53:27.215Z,3.30
2018-07-20T01:55:55.869Z,3.10
2018-07-20T01:58:24.483Z,3.23
2018-07-20T02:00:53.176Z,3.50
2018-07-20T02:03:21.851Z,3.20
2018-07-20T02:05:50.535Z,3.10
2018-07-20T02:08:19.220Z,3.53
2018-07-20T02:10:54.526Z,3.47
2018-07-20T02:13:23.246Z,3.27
2018-07-20T02:15:51.943Z,3.77
2018-07-20T02:18:20.670Z,3.30
2018-07-20T02:20:49.327Z,3.12
2018-07-20T02:23:18.029Z,3.10
2018-07-20T02:25:46.837Z,3.30
2018-07-20T02:28:15.480Z,3.60
2018-07-20T02:30:44.489Z,3.63
2018-07-20T02:33:13.146Z,3.60
2018-07-20T02:35:41.865Z,3.53
2018-07-20T02:38:10.545Z,3.10
2018-07-20T02:40:39.629Z,3.40
2018-07-20T02:43:08.286Z,3.30
2018-07-20T02:45:36.976Z,3.40
2018-07-20T02:48:05.781Z,3.30
2018-07-20T02:50:34.531Z,3.20
2018-07-20T02:53:03.345Z,3.60
2018-07-20T02:55:32.009Z,3.87
2018-07-20T02:58:00.669Z,3.80
2018-07-20T03:00:29.425Z,3.70
2018-07-20T03:02:58.055Z,3.77
2018-07-20T03:05:26.740Z,3.80
2018-07-20T03:07:55.471Z,3.40
2018-07-20T03:10:24.158Z,4.23
2018-07-20T03:12:52.933Z,3.67
2018-07-20T03:15:21.593Z,3.53
2018-07-20T03:17:50.292Z,3.70
2018-07-20T03:20:18.992Z,4.03
2018-07-20T03:22:47.652Z,4.17
2018-07-20T03:25:16.306Z,4.23
2018-07-20T03:27:44.660Z,5.07
2018-07-20T03:30:13.375Z,4.37
2018-07-20T03:32:42.079Z,4.03
2018-07-20T03:35:10.694Z,3.90
2018-07-20T03:37:39.349Z,4.40
2018-07-20T03:40:08.030Z,4.93
2018-07-20T03:42:36.672Z,5.07
2018-07-20T03:45:05.504Z,5.60
2018-07-20T03:47:33.816Z,5.53
2018-07-20T03:50:02.656Z,5.83
2018-07-20T03:52:31.305Z,5.80
2018-07-20T03:54:59.983Z,5.97
2018-07-20T03:57:28.677Z,5.63
2018-07-20T03:59:57.419Z,4.93
2018-07-20T04:02:26.098Z,5.40
2018-07-20T04:04:54.792Z,5.20
2018-07-20T04:07:23.528Z,5.07
2018-07-20T04:09:52.237Z,5.20
2018-07-20T04:12:20.976Z,5.20
2018-07-20T04:14:49.681Z,5.20
2018-07-20T04:17:18.382Z,5.20
2018-07-20T04:19:47.057Z,5.63
2018-07-20T04:22:15.753Z,5.10
2018-07-20T04:24:44.777Z,5.37
2018-07-20T04:27:13.441Z,5.20
2018-07-20T04:29:42.136Z,5.23
2018-07-20T04:32:11.147Z,5.30
2018-07-20T04:34:39.824Z,6.13
2018-07-20T04:37:08.478Z,5.57
2018-07-20T04:39:37.169Z,5.40
2018-07-20T04:42:05.856Z,5.23
2018-07-20T04:44:34.546Z,5.30
2018-07-20T04:47:03.297Z,5.27
2018-07-20T04:49:32.005Z,5.70
2018-07-20T04:52:00.673Z,5.60
2018-07-20T04:54:29.398Z,5.40
2018-07-20T04:56:58.070Z,4.90
2018-07-20T04:59:26.934Z,4.80
2018-07-20T05:01:55.596Z,5.50
2018-07-20T05:04:24.282Z,4.97
2018-07-20T05:06:52.977Z,5.15
2018-07-20T05:09:21.600Z,5.42
2018-07-20T05:11:50.307Z,5.33
2018-07-20T05:14:19.010Z,5.10
2018-07-20T05:16:47.683Z,5.80
2018-07-20T05:19:16.308Z,5.00
2018-07-20T05:21:44.568Z,4.70
2018-07-20T05:24:13.245Z,5.53
2018-07-20T05:26:41.922Z,5.17
2018-07-20T05:29:10.585Z,5.12
2018-07-20T05:31:39.296Z,5.33
2018-07-20T05:34:07.978Z,4.60
2018-07-20T05:36:36.689Z,4.95
2018-07-20T05:39:07.479Z,5.30
2018-07-20T05:41:36.142Z,4.33
2018-07-20T05:44:05.125Z,4.62
2018-07-20T05:46:33.804Z,4.92
2018-07-20T05:49:02.740Z,4.50
2018-07-20T05:51:31.433Z,4.10
2018-07-20T05:54:00.067Z,4.58
2018-07-20T05:56:28.720Z,4.60
2018-07-20T05:58:57.366Z,4.25
2018-07-20T06:01:25.665Z,4.50
2018-07-20T06:03:54.331Z,4.42
2018-07-20T06:06:22.987Z,4.80
2018-07-20T06:08:51.652Z,3.90
2018-07-20T06:11:20.377Z,4.50
2018-07-20T06:13:49.052Z,4.67
2018-07-20T06:16:17.724Z,4.80
2018-07-20T06:18:46.377Z,4.12
2018-07-20T06:21:15.039Z,4.53
2018-07-20T06:23:43.822Z,4.97
2018-07-20T06:26:12.517Z,3.83
2018-07-20T06:28:41.149Z,3.98
2018-07-20T06:31:09.895Z,4.05
2018-07-20T06:33:38.524Z,4.28
2018-07-20T06:36:07.214Z,3.92
2018-07-20T06:38:35.889Z,4.50
2018-07-20T06:41:05.023Z,4.35
2018-07-20T06:43:33.674Z,4.80
2018-07-20T06:46:02.363Z,4.47
2018-07-20T06:48:31.015Z,5.37
2018-07-20T06:50:59.693Z,4.33
2018-07-20T06:53:28.395Z,4.58
2018-07-20T06:55:57.190Z,4.60
2018-07-20T06:58:25.822Z,4.40
2018-07-20T07:00:54.752Z,4.60
2018-07-20T07:03:23.388Z,3.90
2018-07-20T07:05:52.037Z,4.62
2018-07-20T07:08:20.705Z,4.58
2018-07-20T07:10:49.379Z,4.08
2018-07-20T07:13:18.168Z,4.58
2018-07-20T07:15:46.886Z,4.47
2018-07-20T07:18:15.665Z,3.72
2018-07-20T07:20:44.371Z,4.00
2018-07-20T07:23:13.040Z,4.62
2018-07-20T07:25:41.380Z,4.33
2018-07-20T07:28:10.052Z,4.60
2018-07-20T07:30:39.004Z,3.92
2018-07-20T07:33:07.679Z,4.10
2018-07-20T07:35:36.348Z,3.98
2018-07-20T07:38:05.084Z,3.37
2018-07-20T07:40:33.388Z,3.87
2018-07-20T07:43:02.066Z,4.28
2018-07-20T07:45:31.165Z,4.75
2018-07-20T07:47:59.835Z,4.70
2018-07-20T07:50:33.474Z,4.78
2018-07-20T07:53:02.166Z,4.50
2018-07-20T07:55:30.942Z,3.83
2018-07-20T07:57:59.609Z,3.33
2018-07-20T08:00:28.312Z,3.55
2018-07-20T08:02:56.984Z,3.75
2018-07-20T08:05:25.747Z,3.50
2018-07-20T08:07:54.649Z,3.30
2018-07-20T08:10:23.692Z,3.50
2018-07-20T08:12:52.449Z,3.45
2018-07-20T08:15:21.142Z,2.90
2018-07-20T08:17:49.884Z,3.47
2018-07-20T08:20:18.561Z,3.05
2018-07-20T08:22:47.255Z,3.30
2018-07-20T08:25:15.877Z,3.47
2018-07-20T08:27:44.535Z,3.20
2018-07-20T08:30:13.177Z,3.20
2018-07-20T08:32:41.866Z,3.17
2018-07-20T08:35:10.603Z,3.67
2018-07-20T08:37:39.304Z,3.22
2018-07-20T08:40:08.006Z,4.20
2018-07-20T08:42:36.743Z,3.58
2018-07-20T08:45:05.854Z,4.90
2018-07-20T08:47:34.521Z,3.65
2018-07-20T08:50:03.459Z,3.47
2018-07-20T08:52:37.389Z,3.00
2018-07-20T08:55:06.755Z,3.05
2018-07-20T08:57:35.407Z,3.20
2018-07-20T09:00:04.961Z,3.33
2018-07-20T09:02:33.609Z,3.47
2018-07-20T09:05:02.771Z,3.42
2018-07-20T09:07:31.471Z,2.92
2018-07-20T09:10:00.201Z,3.30
2018-07-20T09:12:28.945Z,3.25
2018-07-20T09:14:57.656Z,3.12
2018-07-20T09:17:26.444Z,3.10
2018-07-20T09:19:54.738Z,3.33
2018-07-20T09:22:23.499Z,3.00
2018-07-20T09:24:52.202Z,2.90
2018-07-20T09:27:20.949Z,3.37
2018-07-20T09:29:49.771Z,3.20
2018-07-20T09:32:18.673Z,3.08
2018-07-20T09:34:48.170Z,3.22
2018-07-20T09:37:18.278Z,3.12
2018-07-20T09:39:48.537Z,3.90
2018-07-20T09:42:18.187Z,3.35
2018-07-20T09:44:48.155Z,3.50
2018-07-20T09:47:17.523Z,3.67
2018-07-20T09:49:49.276Z,3.52
2018-07-20T09:52:18.049Z,3.42
2018-07-20T09:54:46.734Z,3.87
2018-07-20T09:57:15.442Z,3.50
2018-07-20T09:59:44.194Z,3.72
2018-07-20T10:02:12.867Z,3.70
2018-07-20T10:04:41.573Z,3.60
2018-07-20T10:07:10.249Z,3.50
2018-07-20T10:09:38.939Z,3.52
2018-07-20T10:12:08.073Z,3.45
2018-07-20T10:14:36.779Z,3.75
2018-07-20T10:17:05.678Z,4.15
2018-07-20T10:19:34.309Z,3.47
2018-07-20T10:22:03.401Z,3.50
2018-07-20T10:24:32.104Z,3.55
2018-07-20T10:27:00.808Z,3.47
2018-07-20T10:29:29.473Z,3.40
2018-07-20T10:31:58.235Z,3.40
2018-07-20T10:34:26.879Z,3.80
2018-07-20T10:36:55.555Z,3.22
2018-07-20T10:39:24.223Z,4.00
2018-07-20T10:41:52.932Z,4.45
2018-07-20T10:44:21.793Z,3.30
2018-07-20T10:46:50.487Z,3.40
2018-07-20T10:49:19.170Z,3.33
2018-07-20T10:51:47.838Z,3.30
2018-07-20T10:54:16.577Z,3.02
2018-07-20T10:56:45.256Z,3.30
2018-07-20T10:59:13.916Z,3.83
2018-07-20T11:01:42.600Z,3.77
2018-07-20T11:04:11.264Z,4.00
2018-07-20T11:06:39.903Z,3.30
2018-07-20T11:09:09.202Z,3.65
2018-07-20T11:11:37.856Z,3.90
2018-07-20T11:14:06.546Z,3.60
2018-07-20T11:16:35.217Z,3.42
2018-07-20T11:19:03.561Z,3.75
2018-07-20T11:21:32.244Z,4.03
2018-07-20T11:24:00.894Z,3.77
2018-07-20T11:26:29.581Z,3.33
2018-07-20T11:28:58.312Z,3.37
2018-07-20T11:31:27.005Z,3.65
2018-07-20T11:33:55.662Z,3.37
2018-07-20T11:36:24.402Z,3.60
2018-07-20T11:38:53.077Z,3.22
2018-07-20T11:41:21.769Z,3.37
2018-07-20T11:43:50.431Z,3.40
2018-07-20T11:46:19.121Z,3.52
2018-07-20T11:48:47.839Z,3.22
2018-07-20T11:51:16.536Z,4.10
2018-07-20T11:53:45.232Z,4.12
2018-07-20T11:56:13.873Z,3.70
2018-07-20T11:58:42.519Z,3.72
2018-07-20T12:01:11.177Z,3.72
2018-07-20T12:03:39.833Z,3.50
2018-07-20T12:06:08.471Z,3.80
2018-07-20T12:08:37.154Z,4.50
2018-07-20T12:11:05.828Z,3.83
2018-07-20T12:13:34.497Z,4.00
2018-07-20T12:16:03.162Z,4.78
2018-07-20T12:18:31.900Z,4.78
2018-07-20T12:21:00.566Z,3.98
2018-07-20T12:23:29.251Z,4.08
2018-07-20T12:25:57.931Z,4.00
2018-07-20T12:28:26.615Z,3.92
2018-07-20T12:30:55.273Z,4.25
2018-07-20T12:33:23.964Z,4.00
2018-07-20T12:35:52.625Z,4.00
2018-07-20T12:38:21.292Z,4.25
2018-07-20T12:40:50.021Z,5.00
2018-07-20T12:43:18.708Z,4.72
2018-07-20T12:45:47.405Z,4.12
2018-07-20T12:48:16.060Z,4.70
2018-07-20T12:50:44.826Z,3.90
2018-07-20T12:53:13.540Z,4.60
2018-07-20T12:55:41.835Z,4.42
2018-07-20T12:58:10.484Z,4.17
2018-07-20T13:00:39.405Z,4.80
2018-07-20T13:03:08.108Z,3.85
2018-07-20T13:05:36.782Z,4.50
2018-07-20T13:08:05.503Z,4.05
2018-07-20T13:10:34.169Z,4.25
2018-07-20T13:13:02.809Z,4.08
2018-07-20T13:15:31.448Z,4.30
2018-07-20T13:18:00.175Z,4.33
2018-07-20T13:20:29.043Z,4.35
2018-07-20T13:22:57.700Z,4.40
2018-07-20T13:25:26.426Z,4.62
2018-07-20T13:27:55.118Z,4.50
2018-07-20T13:30:23.813Z,4.42
2018-07-20T13:32:52.520Z,4.40
2018-07-20T13:35:21.197Z,4.05
2018-07-20T13:37:50.208Z,4.37
2018-07-20T13:40:18.871Z,4.15
2018-07-20T13:42:47.552Z,4.28
2018-07-20T13:45:16.303Z,4.08
2018-07-20T13:47:45.007Z,4.33
2018-07-20T13:50:13.677Z,4.15
2018-07-20T13:52:42.464Z,4.45
2018-07-20T13:55:11.097Z,4.70
2018-07-20T13:57:39.823Z,4.30
2018-07-20T14:00:08.995Z,5.10
2018-07-20T14:02:37.708Z,4.60
2018-07-20T14:05:06.446Z,4.87
2018-07-20T14:07:35.118Z,4.40
2018-07-20T14:10:04.246Z,4.40
2018-07-20T14:12:32.892Z,4.40
2018-07-20T14:15:01.593Z,4.80
2018-07-20T14:17:30.241Z,4.83
2018-07-20T14:19:58.935Z,3.70
2018-07-20T14:22:27.678Z,3.77
2018-07-20T14:24:56.012Z,3.92
2018-07-20T14:27:24.732Z,4.00
2018-07-20T14:29:53.519Z,4.70
2018-07-20T14:32:22.224Z,4.12
2018-07-20T14:34:50.928Z,4.03
2018-07-20T14:37:19.686Z,4.12
2018-07-20T14:39:48.364Z,4.05
2018-07-20T14:42:17.025Z,4.00
2018-07-20T14:44:45.681Z,3.55
2018-07-20T14:47:14.409Z,3.77
2018-07-20T14:49:43.330Z,3.80
2018-07-20T14:52:11.960Z,3.70
2018-07-20T14:54:40.619Z,3.58
2018-07-20T14:57:09.519Z,3.40
2018-07-20T14:59:38.151Z,3.62
2018-07-20T15:02:06.973Z,3.50
2018-07-20T15:04:35.663Z,4.03
2018-07-20T15:07:04.406Z,3.72
2018-07-20T15:09:33.146Z,3.60
2018-07-20T15:12:01.750Z,4.30
2018-07-20T15:14:30.434Z,4.62
2018-07-20T15:16:59.106Z,4.28
2018-07-20T15:19:42.478Z,4.40
2018-07-20T15:22:11.179Z,4.10
2018-07-20T15:24:40.113Z,4.33
2018-07-20T15:27:10.081Z,4.37
2018-07-20T15:29:38.892Z,3.65
2018-07-20T15:32:07.533Z,4.30
2018-07-20T15:34:36.215Z,4.40
2018-07-20T15:37:04.916Z,4.40
2018-07-20T15:39:33.610Z,4.40
2018-07-20T15:42:02.398Z,3.70
2018-07-20T15:44:31.048Z,3.58
2018-07-20T15:46:59.820Z,4.17
2018-07-20T15:49:28.688Z,3.85
2018-07-20T15:53:35.608Z,3.60
2018-07-20T15:54:25.766Z,3.80
2018-07-20T15:56:54.383Z,3.60
2018-07-20T15:59:23.359Z,3.90
2018-07-20T16:01:52.192Z,3.80
2018-07-20T16:04:20.898Z,4.15
2018-07-20T16:06:49.564Z,4.05
2018-07-20T16:09:18.265Z,4.42
2018-07-20T16:11:46.966Z,3.90
2018-07-20T16:14:15.689Z,4.37
2018-07-20T16:16:44.336Z,4.20
2018-07-20T16:19:12.981Z,3.70
2018-07-20T16:21:41.646Z,4.00
2018-07-20T16:24:10.308Z,4.20
2018-07-20T16:26:38.944Z,4.20
2018-07-20T16:29:07.648Z,4.50
2018-07-20T16:31:36.321Z,4.20
2018-07-20T16:34:04.961Z,4.40
2018-07-20T16:36:33.670Z,3.90
2018-07-20T16:39:02.313Z,3.92
2018-07-20T16:41:30.972Z,3.98
2018-07-20T16:43:59.619Z,3.83
2018-07-20T16:46:29.222Z,4.30
2018-07-20T16:48:57.993Z,4.10
2018-07-20T16:51:26.680Z,3.50
2018-07-20T16:53:55.363Z,4.00
2018-07-20T16:56:24.032Z,3.87
2018-07-20T16:58:52.929Z,3.80
2018-07-20T17:01:21.595Z,3.67
2018-07-20T17:03:50.300Z,3.90
2018-07-20T17:06:18.997Z,4.17
2018-07-20T17:08:47.664Z,3.52
2018-07-20T17:11:16.346Z,3.92
2018-07-20T17:13:44.995Z,3.83
2018-07-20T17:16:13.626Z,4.65
2018-07-20T17:18:42.317Z,4.28
2018-07-20T17:21:11.139Z,3.80
2018-07-20T17:23:39.820Z,4.10
2018-07-20T17:26:08.917Z,3.92
2018-07-20T17:28:37.713Z,3.92
2018-07-20T17:31:06.438Z,4.17
2018-07-20T17:33:35.135Z,4.37
2018-07-20T17:36:03.837Z,4.12
2018-07-20T17:38:32.550Z,4.20
2018-07-20T17:41:01.232Z,3.67
2018-07-20T17:43:29.894Z,4.00
2018-07-20T17:45:58.549Z,4.00
2018-07-20T17:48:27.194Z,4.17
2018-07-20T17:50:55.908Z,4.22
2018-07-20T17:53:24.656Z,4.70
2018-07-20T17:55:53.397Z,4.35
2018-07-20T17:58:21.699Z,4.28
2018-07-20T18:00:50.440Z,4.20
2018-07-20T18:03:19.196Z,3.90
2018-07-20T18:05:47.849Z,4.30
2018-07-20T18:08:16.484Z,4.62
2018-07-20T18:10:45.173Z,4.55
2018-07-20T18:13:13.825Z,4.40
2018-07-20T18:15:42.504Z,4.35
2018-07-20T18:18:11.180Z,5.45
2018-07-20T18:20:39.865Z,4.62
2018-07-20T18:23:08.556Z,4.67
2018-07-20T18:25:37.223Z,4.62
2018-07-20T18:28:05.944Z,4.58
2018-07-20T18:30:34.602Z,4.95
2018-07-20T18:33:03.250Z,4.70
2018-07-20T18:35:31.890Z,4.83
2018-07-20T18:38:00.532Z,4.58
2018-07-20T18:40:29.351Z,4.50
2018-07-20T18:42:58.100Z,4.90
2018-07-20T18:45:26.702Z,4.30
2018-07-20T18:47:55.356Z,4.55
2018-07-20T18:50:24.042Z,5.03
2018-07-20T18:52:52.743Z,4.78
2018-07-20T18:55:21.428Z,5.45
2018-07-20T18:57:50.111Z,5.65
2018-07-20T19:00:18.866Z,5.40
2018-07-20T19:02:47.548Z,5.40
2018-07-20T19:05:16.217Z,5.90
2018-07-20T19:07:44.839Z,5.80
2018-07-20T19:10:13.516Z,5.85
2018-07-20T19:12:42.174Z,5.78
2018-07-20T19:15:10.884Z,5.83
2018-07-20T19:17:39.583Z,6.05
2018-07-20T19:20:08.316Z,5.92
2018-07-20T19:22:36.997Z,6.33
2018-07-20T19:25:05.712Z,6.58
2018-07-20T19:27:34.382Z,6.40
2018-07-20T19:30:03.122Z,6.35
2018-07-20T19:32:31.891Z,6.33
2018-07-20T19:35:00.544Z,7.00
2018-07-20T19:37:29.204Z,6.45
2018-07-20T19:39:58.178Z,6.72
2018-07-20T19:42:26.892Z,6.90
2018-07-20T19:44:55.563Z,6.37
2018-07-20T19:47:24.214Z,6.53
2018-07-20T19:49:52.922Z,6.85
2018-07-20T19:52:21.727Z,6.87
2018-07-20T19:54:50.405Z,6.90
2018-07-20T19:57:19.746Z,6.60
2018-07-20T19:59:48.588Z,7.47
2018-07-20T20:02:17.256Z,6.90
2018-07-20T20:04:45.909Z,7.20
2018-07-20T20:07:14.583Z,7.20
2018-07-20T20:09:43.313Z,6.78
2018-07-20T20:12:12.141Z,6.75
2018-07-20T20:14:40.849Z,7.17
2018-07-20T20:17:09.162Z,7.10
2018-07-20T20:19:37.457Z,6.70
2018-07-20T20:22:06.148Z,6.90
2018-07-20T20:24:35.105Z,6.85
2018-07-20T20:27:03.833Z,6.80
2018-07-20T20:29:32.507Z,7.33
2018-07-20T20:32:01.159Z,6.75
2018-07-20T20:34:29.862Z,7.10
2018-07-20T20:36:58.541Z,6.92
2018-07-20T20:39:27.141Z,6.35
2018-07-20T20:41:55.455Z,6.30
2018-07-20T20:44:24.153Z,6.80
2018-07-20T20:46:52.785Z,7.30
2018-07-20T20:49:21.749Z,7.10
2018-07-20T20:51:50.460Z,6.65
2018-07-20T20:54:19.115Z,6.65
2018-07-20T20:56:47.788Z,6.50
2018-07-20T20:59:16.487Z,6.80
2018-07-20T21:01:45.134Z,5.95
2018-07-20T21:04:14.125Z,6.97
2018-07-20T21:06:42.791Z,6.60
2018-07-20T21:09:11.485Z,6.65
2018-07-20T21:11:40.223Z,6.40
2018-07-20T21:14:08.930Z,6.85
2018-07-20T21:16:37.745Z,6.95
2018-07-20T21:19:06.470Z,6.42
2018-07-20T21:21:35.120Z,6.28
2018-07-20T21:24:03.777Z,6.65
2018-07-20T21:26:32.446Z,6.25
2018-07-20T21:29:01.155Z,6.45
2018-07-20T21:31:29.927Z,6.30
2018-07-20T21:33:58.625Z,7.05
2018-07-20T21:36:27.323Z,6.65
2018-07-20T21:38:56.116Z,6.78
2018-07-20T21:41:24.756Z,6.40
2018-07-20T21:43:53.434Z,6.60
2018-07-20T21:46:22.100Z,6.28
2018-07-20T21:48:50.788Z,6.78
2018-07-20T21:51:19.464Z,6.95
2018-07-20T21:53:48.204Z,7.12
2018-07-20T21:56:16.513Z,6.47
2018-07-20T21:58:45.202Z,7.00
2018-07-20T22:01:14.094Z,7.10
2018-07-20T22:03:42.699Z,7.05
2018-07-20T22:06:11.369Z,6.75
2018-07-20T22:08:40.079Z,7.60
2018-07-20T22:11:08.753Z,6.55
2018-07-20T22:13:37.445Z,7.37
2018-07-20T22:16:06.619Z,6.83
2018-07-20T22:18:35.492Z,7.33
2018-07-20T22:21:04.773Z,7.10
2018-07-20T22:23:33.450Z,7.90
2018-07-20T22:26:02.146Z,7.42
2018-07-20T22:28:30.797Z,6.58
2018-07-20T22:30:59.742Z,7.50
2018-07-20T22:33:28.398Z,6.95
2018-07-20T22:35:57.065Z,6.78
2018-07-20T22:38:25.724Z,6.70
2018-07-20T22:40:54.375Z,7.08
2018-07-20T22:43:23.138Z,7.12
2018-07-20T22:45:51.854Z,6.30
2018-07-20T22:48:20.500Z,7.10
2018-07-20T22:50:49.205Z,6.78
2018-07-20T22:53:17.956Z,7.10
2018-07-20T22:55:46.620Z,7.50
2018-07-20T22:58:15.452Z,6.90
2018-07-20T23:00:44.131Z,7.28
2018-07-20T23:03:12.806Z,7.33
2018-07-20T23:05:41.778Z,7.70
2018-07-20T23:08:10.484Z,7.40
2018-07-20T23:10:39.129Z,7.03
2018-07-20T23:13:07.444Z,7.67
2018-07-20T23:15:36.139Z,7.12
2018-07-20T23:18:04.818Z,7.33
2018-07-20T23:20:33.821Z,7.53
2018-07-20T23:23:02.473Z,7.08
2018-07-20T23:25:31.462Z,7.58
2018-07-20T23:28:00.153Z,7.40
2018-07-20T23:30:28.848Z,6.75
2018-07-20T23:32:57.538Z,6.70
2018-07-20T23:35:26.258Z,7.50
2018-07-20T23:37:54.913Z,7.37
2018-07-20T23:40:23.603Z,7.05
2018-07-20T23:42:52.300Z,6.95
2018-07-20T23:45:20.974Z,6.70
2018-07-20T23:47:49.676Z,6.55
2018-07-20T23:50:18.412Z,6.67
2018-07-20T23:52:47.117Z,6.65
2018-07-20T23:55:15.775Z,6.50
2018-07-20T23:57:44.421Z,6.47
